Time;durP1;ratioP1;P1;durP2;ratioP2;P2;SDS_P1;SDS_P2;PMS_P1;PMS_P2;Temp;Humidity;BMP_temperature;BMP_pressure;BME280_temperature;BME280_humidity;BME280_pressure;Samples;Min_cycle;Max_cycle;Signal;HPM_P1;HPM_P2
2022/05/02 00:04:07;;;;;;;1.33;0.90;;;14.60;60.30;;;;;;20891636;28;20052;-74
2022/05/02 00:14:08;;;;;;;1.52;1.00;;;14.60;60.30;;;;;;20875525;28;20128;-75
2022/05/02 00:24:09;;;;;;;1.55;1.00;;;14.50;60.10;;;;;;20890462;28;20064;-75
2022/05/02 00:34:10;;;;;;;1.70;0.90;;;14.50;60.10;;;;;;20890004;28;20368;-74
2022/05/02 00:44:11;;;;;;;1.23;1.00;;;14.50;60.00;;;;;;20889567;28;20098;-74
2022/05/02 00:54:12;;;;;;;2.05;0.90;;;14.50;60.00;;;;;;20889001;28;20136;-74
2022/05/02 01:04:12;;;;;;;1.40;0.90;;;14.50;60.00;;;;;;20888829;28;20056;-74
2022/05/02 01:14:13;;;;;;;1.13;0.80;;;14.50;59.90;;;;;;20880899;28;20037;-74
2022/05/02 01:24:13;;;;;;;1.67;0.90;;;14.50;59.80;;;;;;20903571;28;20060;-74
2022/05/02 01:34:14;;;;;;;0.95;0.80;;;14.50;59.80;;;;;;20903447;28;20067;-74
2022/05/02 01:44:14;;;;;;;2.75;0.75;;;14.50;59.70;;;;;;20870366;28;20077;-74
2022/05/02 01:54:16;;;;;;;2.55;1.20;;;14.40;59.70;;;;;;20869755;28;20467;-74
2022/05/02 02:14:35;;;;;;;2.78;0.73;;;14.40;59.70;;;;;;20876319;28;20120;-75
2022/05/02 02:24:37;;;;;;;1.58;1.10;;;14.40;59.60;;;;;;20916311;28;20468;-75
2022/05/02 02:34:37;;;;;;;1.85;0.90;;;14.40;59.70;;;;;;20899311;28;20594;-74
2022/05/02 02:44:38;;;;;;;1.70;0.90;;;14.40;59.60;;;;;;21098831;23;20065;-74
2022/05/02 02:54:38;;;;;;;0.80;0.60;;;14.40;59.60;;;;;;20749850;28;20045;-75
2022/05/02 03:14:58;;;;;;;1.83;1.00;;;14.30;59.50;;;;;;20760218;28;20125;-75
2022/05/02 03:24:58;;;;;;;1.23;0.95;;;14.30;59.50;;;;;;20668717;28;20062;-73
2022/05/02 03:35:00;;;;;;;2.03;0.90;;;14.30;59.50;;;;;;20665513;28;20049;-74
2022/05/02 03:45:01;;;;;;;1.40;1.00;;;14.30;59.50;;;;;;20681697;28;20052;-74
2022/05/02 03:55:02;;;;;;;1.05;0.70;;;14.30;59.50;;;;;;20664120;28;20038;-73
2022/05/02 04:05:03;;;;;;;1.88;0.90;;;14.30;59.50;;;;;;20680163;28;20030;-73
2022/05/02 04:15:09;;;;;;;1.83;0.80;;;14.30;59.50;;;;;;20679082;28;20096;-74
2022/05/02 04:25:09;;;;;;;3.17;0.95;;;14.30;59.50;;;;;;20678132;28;20034;-73
2022/05/02 04:35:12;;;;;;;1.70;0.95;;;14.30;59.50;;;;;;20677732;28;20400;-73
2022/05/02 04:45:13;;;;;;;0.98;0.80;;;14.20;59.50;;;;;;20660137;28;20403;-74
2022/05/02 04:55:14;;;;;;;0.90;0.70;;;14.20;59.50;;;;;;20739267;28;20112;-77
2022/05/02 05:05:16;;;;;;;0.68;0.68;;;14.20;60.20;;;;;;20741260;28;20068;-80
2022/05/02 05:26:01;;;;;;;0.50;0.47;;;14.20;59.60;;;;;;20721553;28;20034;-74
2022/05/02 05:36:34;;;;;;;1.00;0.90;;;14.20;59.60;;;;;;20735658;28;20095;-72
2022/05/02 05:46:50;;;;;;;2.15;0.98;;;14.20;59.70;;;;;;20739373;28;20131;-75
2022/05/02 05:57:13;;;;;;;3.30;1.50;;;14.10;59.50;;;;;;20751165;28;20038;-75
2022/05/02 06:07:14;;;;;;;2.20;1.20;;;14.20;59.30;;;;;;20769936;28;20045;-72
2022/05/02 06:27:39;;;;;;;2.42;1.00;;;14.20;59.40;;;;;;20771665;28;20081;-73
2022/05/02 06:37:46;;;;;;;1.55;0.80;;;14.20;59.60;;;;;;20761844;28;20377;-74
2022/05/02 06:47:56;;;;;;;1.50;1.20;;;14.30;59.80;;;;;;20716082;28;20415;-73
2022/05/02 06:58:35;;;;;;;1.90;0.90;;;14.30;59.80;;;;;;20730573;28;20043;-74
2022/05/02 07:08:52;;;;;;;4.43;1.40;;;14.30;59.90;;;;;;20705301;28;20500;-73
2022/05/02 07:19:34;;;;;;;1.17;0.77;;;14.40;59.90;;;;;;20746067;28;20034;-73
2022/05/02 07:29:35;;;;;;;1.50;0.80;;;14.40;60.00;;;;;;20744848;28;20655;-74
2022/05/02 07:39:35;;;;;;;0.98;0.80;;;14.40;60.00;;;;;;20744421;28;20088;-73
2022/05/02 07:49:37;;;;;;;1.10;0.80;;;14.40;60.10;;;;;;20743892;28;20070;-72
2022/05/02 07:59:41;;;;;;;1.05;0.60;;;14.40;60.10;;;;;;20719766;28;20585;-73
2022/05/02 08:10:03;;;;;;;0.88;0.60;;;14.50;60.10;;;;;;20661923;28;20042;-72
2022/05/02 08:20:35;;;;;;;0.50;0.47;;;14.50;60.10;;;;;;20645307;28;20030;-75
2022/05/02 08:30:40;;;;;;;1.38;1.10;;;14.50;60.10;;;;;;20676410;28;20072;-71
2022/05/02 08:41:00;;;;;;;1.75;0.90;;;14.50;60.10;;;;;;20750938;28;20049;-71
2022/05/02 08:51:09;;;;;;;1.83;0.95;;;14.60;60.20;;;;;;20742298;28;20061;-73
2022/05/02 09:01:30;;;;;;;0.60;0.50;;;14.60;60.20;;;;;;20724815;28;20040;-73
2022/05/02 09:11:39;;;;;;;3.58;1.08;;;14.60;60.10;;;;;;20755941;28;20049;-73
2022/05/02 09:21:40;;;;;;;2.10;1.15;;;14.60;60.10;;;;;;20740047;28;20041;-72
2022/05/02 09:31:52;;;;;;;5.53;1.42;;;14.60;60.00;;;;;;20757410;28;20034;-70
2022/05/02 09:42:03;;;;;;;3.63;1.00;;;14.70;60.00;;;;;;20756882;28;20464;-72
2022/05/02 09:52:13;;;;;;;2.90;0.90;;;14.70;60.10;;;;;;20683155;28;20073;-71
2022/05/02 10:02:19;;;;;;;1.58;0.90;;;14.80;60.30;;;;;;20737036;28;20061;-75
2022/05/02 10:12:30;;;;;;;4.68;1.02;;;14.80;60.40;;;;;;20752715;28;20038;-74
2022/05/02 10:22:58;;;;;;;4.78;0.95;;;14.80;60.40;;;;;;20767210;28;20040;-73
2022/05/02 10:32:59;;;;;;;2.58;0.95;;;14.70;60.50;;;;;;20758751;28;20139;-73
2022/05/02 10:43:04;;;;;;;0.93;0.83;;;14.70;60.50;;;;;;20767515;28;20037;-74
2022/05/02 10:53:30;;;;;;;1.17;0.80;;;14.80;60.70;;;;;;20733057;28;20323;-75
2022/05/02 11:03:55;;;;;;;2.42;1.02;;;14.70;60.70;;;;;;20763253;28;20117;-76
2022/05/02 11:14:05;;;;;;;1.48;0.88;;;14.80;60.70;;;;;;20709174;28;20030;-75
2022/05/02 11:24:27;;;;;;;1.00;0.70;;;14.80;60.70;;;;;;20682858;28;20162;-75
2022/05/02 11:34:37;;;;;;;1.42;0.90;;;14.80;60.70;;;;;;20677178;28;20053;-75
2022/05/02 11:44:52;;;;;;;1.08;0.98;;;14.80;60.70;;;;;;20747359;28;20396;-70
2022/05/02 11:54:54;;;;;;;2.40;1.35;;;14.80;60.70;;;;;;20743622;28;20132;-71
2022/05/02 12:04:55;;;;;;;2.25;1.00;;;14.90;60.60;;;;;;20744413;28;20052;-71
2022/05/02 12:15:10;;;;;;;4.90;1.30;;;14.90;60.50;;;;;;20743083;28;20561;-71
2022/05/02 12:25:10;;;;;;;3.33;1.67;;;14.90;60.60;;;;;;20761796;28;20030;-70
2022/05/02 12:35:11;;;;;;;2.55;1.15;;;14.90;60.60;;;;;;20779816;28;20176;-73
2022/05/02 12:45:14;;;;;;;8.88;2.70;;;14.90;60.60;;;;;;20725465;28;20075;-76
2022/05/02 12:55:15;;;;;;;3.33;1.40;;;15.00;60.70;;;;;;20741801;28;20041;-77
2022/05/02 13:05:17;;;;;;;5.10;1.20;;;15.00;60.70;;;;;;20738314;28;20034;-78
2022/05/02 13:15:17;;;;;;;1.48;1.10;;;15.00;60.70;;;;;;20724108;28;20033;-78
2022/05/02 13:25:19;;;;;;;1.80;1.13;;;15.10;60.90;;;;;;20723678;28;20459;-77
2022/05/02 13:35:26;;;;;;;;;;;15.10;60.90;;;;;;20724856;28;20038;-78
2022/05/02 13:46:03;;;;;;;3.40;1.35;;;15.20;60.90;;;;;;20735890;28;19925;-78
2022/05/02 13:56:11;;;;;;;6.00;1.52;;;15.20;60.70;;;;;;20702181;28;20030;-77
2022/05/02 14:06:14;;;;;;;2.05;1.38;;;15.30;60.70;;;;;;20739015;28;20045;-78
2022/05/02 14:16:15;;;;;;;1.45;0.98;;;15.40;60.70;;;;;;20738870;28;20034;-78
2022/05/02 14:26:17;;;;;;;1.88;1.33;;;15.40;60.60;;;;;;20720021;28;20037;-74
2022/05/02 14:36:18;;;;;;;2.22;1.52;;;15.50;60.50;;;;;;20749011;28;20086;-78
2022/05/02 14:46:20;;;;;;;1.75;1.15;;;15.50;60.60;;;;;;20832858;28;20055;-75
2022/05/02 14:56:21;;;;;;;1.65;1.27;;;15.50;60.60;;;;;;20815485;28;20146;-74
2022/05/02 15:06:24;;;;;;;2.08;1.45;;;15.40;60.50;;;;;;20814788;28;20087;-75
2022/05/02 15:16:54;;;;;;;3.38;1.75;;;15.40;60.50;;;;;;20813749;28;20036;-74
2022/05/02 15:26:54;;;;;;;3.22;1.60;;;15.40;60.40;;;;;;20814971;28;20475;-76
2022/05/02 15:36:57;;;;;;;3.97;1.60;;;15.40;60.30;;;;;;20802706;28;20088;-73
2022/05/02 15:47:09;;;;;;;5.72;1.88;;;15.60;60.20;;;;;;20759884;28;20100;-72
2022/05/02 15:57:16;;;;;;;5.20;1.88;;;15.70;60.00;;;;;;20728529;28;20034;-72
2022/05/02 16:17:36;;;;;;;6.15;1.80;;;15.70;59.20;;;;;;20811303;28;20426;-71
2022/05/02 16:27:36;;;;;;;3.28;1.75;;;15.70;59.10;;;;;;20828871;28;20071;-73
2022/05/02 16:37:37;;;;;;;2.50;1.88;;;15.70;59.20;;;;;;20823179;28;20045;-75
2022/05/02 16:47:41;;;;;;;1.95;1.33;;;15.70;59.30;;;;;;20791088;28;20087;-75
2022/05/02 16:57:42;;;;;;;2.53;1.52;;;15.70;59.40;;;;;;20822440;28;20562;-74
2022/05/02 17:07:42;;;;;;;3.47;2.08;;;15.80;59.40;;;;;;20806612;28;20041;-75
2022/05/02 17:17:44;;;;;;;3.17;1.70;;;15.80;59.50;;;;;;20798052;28;20171;-74
2022/05/02 17:27:45;;;;;;;2.53;1.52;;;15.90;59.50;;;;;;20755800;28;20042;-73
2022/05/02 17:37:59;;;;;;;2.35;1.70;;;15.90;59.50;;;;;;20755480;28;20044;-74
2022/05/02 17:48:00;;;;;;;1.73;1.30;;;15.90;59.50;;;;;;20738111;28;20030;-73
2022/05/02 17:58:05;;;;;;;2.45;1.73;;;15.80;59.40;;;;;;20848140;28;20040;-76
2022/05/02 18:08:06;;;;;;;2.23;1.40;;;15.80;59.50;;;;;;20847516;28;20079;-76
2022/05/02 18:18:09;;;;;;;2.17;1.40;;;15.80;59.60;;;;;;20772945;28;20373;-76
2022/05/02 18:28:21;;;;;;;2.60;1.42;;;15.70;59.80;;;;;;20766666;28;20030;-76
2022/05/02 18:38:30;;;;;;;2.78;1.48;;;15.70;59.90;;;;;;20749379;28;20054;-75
2022/05/02 18:58:50;;;;;;;2.13;1.30;;;15.60;60.10;;;;;;20748385;28;20480;-76
2022/05/02 19:08:53;;;;;;;5.43;1.30;;;15.60;60.10;;;;;;20747459;28;20038;-75
2022/05/02 19:18:54;;;;;;;4.15;1.38;;;15.50;60.20;;;;;;20763453;28;20061;-75
2022/05/02 19:28:54;;;;;;;2.25;1.40;;;15.50;60.30;;;;;;20763037;28;20464;-74
2022/05/02 19:39:08;;;;;;;2.33;1.10;;;15.50;60.30;;;;;;20762324;28;20034;-75
2022/05/02 19:49:08;;;;;;;2.15;1.25;;;15.50;60.40;;;;;;20742755;28;20034;-75
2022/05/02 19:59:09;;;;;;;3.45;1.52;;;15.50;60.40;;;;;;20727690;28;20104;-75
2022/05/02 20:09:09;;;;;;;2.50;1.55;;;15.40;60.40;;;;;;20742298;28;20037;-75
2022/05/02 20:19:10;;;;;;;1.63;1.23;;;15.40;60.50;;;;;;20758871;28;20075;-74
2022/05/02 20:29:11;;;;;;;1.88;1.35;;;15.40;60.50;;;;;;20778283;28;20041;-75
2022/05/02 20:39:11;;;;;;;2.30;1.55;;;15.40;60.50;;;;;;20823545;28;20041;-74
2022/05/02 20:49:12;;;;;;;1.60;1.23;;;15.40;60.50;;;;;;20822616;28;20554;-75
2022/05/02 20:59:12;;;;;;;2.13;1.55;;;15.30;60.50;;;;;;20821550;28;20545;-75
2022/05/02 21:09:13;;;;;;;2.17;1.37;;;15.30;60.50;;;;;;20820398;28;20033;-75
2022/05/02 21:19:27;;;;;;;1.90;1.40;;;15.30;60.60;;;;;;20820364;28;20363;-75
2022/05/02 21:29:41;;;;;;;1.75;1.30;;;15.30;60.60;;;;;;20821008;28;20041;-74
2022/05/02 21:39:44;;;;;;;1.85;1.40;;;15.30;60.60;;;;;;20820120;28;20045;-75
2022/05/02 21:49:45;;;;;;;1.75;1.23;;;15.30;60.60;;;;;;20803618;28;20033;-74
2022/05/02 21:59:46;;;;;;;2.10;1.40;;;15.30;60.60;;;;;;20802224;28;20391;-75
2022/05/02 22:09:46;;;;;;;3.40;1.15;;;15.30;60.60;;;;;;20802247;28;20427;-75
2022/05/02 22:19:47;;;;;;;2.17;1.25;;;15.30;60.60;;;;;;20802139;28;20128;-75
2022/05/02 22:29:47;;;;;;;1.63;1.27;;;15.30;60.40;;;;;;20818140;28;20403;-74
2022/05/02 22:39:48;;;;;;;2.42;1.30;;;15.30;60.30;;;;;;20814975;28;20030;-75
2022/05/02 22:49:48;;;;;;;1.70;1.30;;;15.30;60.20;;;;;;20814511;28;20384;-74
2022/05/02 22:59:50;;;;;;;1.65;1.08;;;15.30;60.20;;;;;;20831376;28;20539;-75
2022/05/02 23:09:51;;;;;;;1.80;1.23;;;15.30;60.10;;;;;;20829721;28;20033;-76
2022/05/02 23:19:54;;;;;;;2.63;1.23;;;15.30;60.10;;;;;;20829529;28;20353;-75
2022/05/02 23:29:55;;;;;;;1.30;0.95;;;15.20;59.90;;;;;;20811662;28;20083;-74
2022/05/02 23:39:59;;;;;;;2.35;0.88;;;15.20;59.90;;;;;;20812182;28;20033;-74
2022/05/02 23:50:06;;;;;;;1.80;1.38;;;15.20;59.80;;;;;;20793262;28;20132;-75
